createdAt,value
2022-09-12T00:02:13.861Z,9.27
2022-09-12T00:04:40.415Z,8.13
2022-09-12T00:07:06.927Z,8.70
2022-09-12T00:09:33.409Z,9.13
2022-09-12T00:11:59.907Z,9.18
2022-09-12T00:14:26.436Z,8.80
2022-09-12T00:16:53.071Z,9.05
2022-09-12T00:19:19.550Z,9.02
2022-09-12T00:21:46.026Z,8.38
2022-09-12T00:24:12.495Z,8.30
2022-09-12T00:26:39.227Z,7.93
2022-09-12T00:29:05.812Z,8.90
2022-09-12T00:31:32.594Z,8.52
2022-09-12T00:34:00.821Z,8.45
2022-09-12T00:36:28.434Z,9.02
2022-09-12T00:38:55.112Z,9.07
2022-09-12T00:41:41.915Z,8.77
2022-09-12T00:44:23.629Z,9.27
2022-09-12T00:47:02.402Z,8.23
2022-09-12T00:49:43.855Z,8.70
2022-09-12T00:52:25.469Z,8.23
2022-09-12T00:55:17.014Z,7.20
2022-09-12T00:57:53.418Z,8.68
2022-09-12T01:00:23.274Z,7.15
2022-09-12T01:02:54.439Z,8.07
2022-09-12T01:05:23.377Z,8.70
2022-09-12T01:07:50.847Z,7.88
2022-09-12T01:10:18.887Z,7.18
2022-09-12T01:12:46.455Z,8.70
2022-09-12T01:15:13.004Z,7.40
2022-09-12T01:17:59.007Z,7.32
2022-09-12T01:20:43.392Z,8.55
2022-09-12T01:23:40.541Z,8.20
2022-09-12T01:26:31.454Z,8.27
2022-09-12T01:29:25.110Z,8.20
2022-09-12T01:31:54.417Z,8.80
2022-09-12T01:34:38.362Z,8.38
2022-09-12T01:39:45.556Z,8.85
2022-09-12T01:42:33.632Z,9.57
2022-09-12T01:45:11.983Z,9.57
2022-09-12T01:47:47.644Z,8.77
2022-09-12T01:50:19.385Z,6.82
2022-09-12T01:53:03.826Z,6.90
2022-09-12T01:55:36.067Z,7.50
2022-09-12T01:58:05.527Z,6.80
2022-09-12T02:00:35.735Z,7.50
2022-09-12T02:03:10.342Z,7.00
2022-09-12T02:05:46.566Z,7.18
2022-09-12T02:08:34.830Z,7.65
2022-09-12T02:11:06.548Z,6.43
2022-09-12T02:13:40.847Z,7.78
2022-09-12T02:16:15.953Z,7.30
2022-09-12T02:18:47.100Z,6.97
2022-09-12T02:21:14.041Z,6.85
2022-09-12T02:23:46.197Z,5.95
2022-09-12T02:26:23.583Z,6.40
2022-09-12T02:28:52.263Z,6.15
2022-09-12T02:31:29.933Z,7.68
2022-09-12T02:34:27.965Z,6.70
2022-09-12T02:37:25.631Z,6.22
2022-09-12T02:39:55.045Z,5.75
2022-09-12T02:42:22.493Z,5.25
2022-09-12T02:44:49.849Z,5.95
2022-09-12T02:47:28.209Z,5.57
2022-09-12T02:49:56.275Z,6.20
2022-09-12T02:52:22.996Z,5.82
2022-09-12T02:54:50.344Z,5.70
2022-09-12T02:57:22.587Z,5.40
2022-09-12T02:59:53.151Z,7.20
2022-09-12T03:02:45.566Z,6.25
2022-09-12T03:05:27.014Z,5.93
2022-09-12T03:07:59.177Z,7.53
2022-09-12T03:10:44.442Z,7.43
2022-09-12T03:13:16.878Z,7.80
2022-09-12T03:15:58.751Z,6.57
2022-09-12T03:18:45.997Z,7.18
2022-09-12T03:21:21.503Z,6.85
2022-09-12T03:24:16.080Z,8.10
2022-09-12T03:27:38.382Z,6.18
2022-09-12T03:30:06.183Z,5.93
2022-09-12T03:32:47.884Z,7.85
2022-09-12T03:35:19.755Z,8.15
2022-09-12T03:37:50.578Z,6.15
2022-09-12T03:40:17.148Z,8.00
2022-09-12T03:42:43.650Z,7.07
2022-09-12T03:45:10.776Z,6.43
2022-09-12T03:47:37.551Z,6.63
2022-09-12T03:50:04.626Z,5.47
2022-09-12T03:52:31.110Z,5.90
2022-09-12T03:54:57.614Z,9.27
2022-09-12T03:57:24.054Z,5.10
2022-09-12T03:59:50.693Z,5.75
2022-09-12T04:02:17.651Z,6.15
2022-09-12T04:04:44.886Z,7.03
2022-09-12T04:07:11.774Z,5.72
2022-09-12T04:09:38.592Z,6.22
2022-09-12T04:12:05.655Z,6.38
2022-09-12T04:14:32.276Z,5.47
2022-09-12T04:16:58.771Z,5.20
2022-09-12T04:19:26.556Z,7.22
2022-09-12T04:21:53.138Z,5.53
2022-09-12T04:24:19.660Z,5.22
2022-09-12T04:26:46.259Z,6.70
2022-09-12T04:29:13.130Z,5.43
2022-09-12T04:31:39.627Z,4.75
2022-09-12T04:34:07.104Z,5.30
2022-09-12T04:36:34.380Z,4.93
2022-09-12T04:39:02.145Z,5.10
2022-09-12T04:41:31.327Z,5.45
2022-09-12T04:44:04.170Z,6.40
2022-09-12T04:46:33.445Z,5.80
2022-09-12T04:49:00.059Z,6.05
2022-09-12T04:51:29.860Z,5.85
2022-09-12T04:54:02.655Z,5.55
2022-09-12T04:56:29.908Z,5.30
2022-09-12T04:58:58.215Z,5.40
2022-09-12T05:01:24.873Z,5.28
2022-09-12T05:03:51.832Z,4.55
2022-09-12T05:06:23.991Z,4.43
2022-09-12T05:08:52.110Z,5.75
2022-09-12T05:11:25.569Z,5.45
2022-09-12T05:13:57.367Z,5.65
2022-09-12T05:16:25.828Z,5.10
2022-09-12T05:18:52.594Z,6.20
2022-09-12T05:21:21.195Z,5.20
2022-09-12T05:23:51.529Z,5.53
2022-09-12T05:26:20.487Z,5.05
2022-09-12T05:28:48.549Z,5.15
2022-09-12T05:31:26.760Z,5.38
2022-09-12T05:33:55.028Z,5.05
2022-09-12T05:36:29.530Z,5.30
2022-09-12T05:38:56.987Z,4.90
2022-09-12T05:41:26.083Z,4.22
2022-09-12T05:43:54.707Z,4.38
2022-09-12T05:46:24.147Z,3.97
2022-09-12T05:48:55.706Z,4.40
2022-09-12T05:51:28.071Z,4.72
2022-09-12T05:53:56.861Z,4.30
2022-09-12T05:56:25.727Z,4.82
2022-09-12T05:58:57.537Z,4.82
2022-09-12T06:01:25.084Z,4.43
2022-09-12T06:03:54.270Z,4.32
2022-09-12T06:06:22.994Z,4.00
2022-09-12T06:08:52.141Z,3.70
2022-09-12T06:11:21.175Z,3.72
2022-09-12T06:13:47.828Z,3.30
2022-09-12T06:16:18.371Z,3.28
2022-09-12T06:18:49.218Z,3.25
2022-09-12T06:21:16.139Z,2.70
2022-09-12T06:23:43.081Z,3.22
2022-09-12T06:26:10.975Z,3.05
2022-09-12T06:28:39.690Z,3.10
2022-09-12T06:31:12.502Z,2.50
2022-09-12T06:33:42.009Z,2.75
2022-09-12T06:36:13.925Z,3.03
2022-09-12T06:38:40.701Z,3.53
2022-09-12T06:41:11.359Z,3.60
2022-09-12T06:43:38.939Z,3.17
2022-09-12T06:46:06.510Z,3.03
2022-09-12T06:48:33.280Z,3.20
2022-09-12T06:51:02.153Z,2.90
2022-09-12T06:53:30.132Z,2.95
2022-09-12T06:56:00.507Z,2.85
2022-09-12T06:58:28.870Z,2.70
2022-09-12T07:01:05.959Z,2.70
2022-09-12T07:03:32.938Z,2.60
2022-09-12T07:06:13.396Z,2.38
2022-09-12T07:08:40.924Z,2.50
2022-09-12T07:11:14.584Z,2.63
2022-09-12T07:13:42.720Z,2.50
2022-09-12T07:16:10.593Z,2.22
2022-09-12T07:18:38.366Z,2.40
2022-09-12T07:21:15.190Z,2.17
2022-09-12T07:23:42.811Z,2.17
2022-09-12T07:26:14.467Z,1.90
2022-09-12T07:28:41.247Z,2.30
2022-09-12T07:31:13.411Z,2.10
2022-09-12T07:33:41.022Z,2.03
2022-09-12T07:36:11.796Z,2.05
2022-09-12T07:38:39.449Z,2.33
2022-09-12T07:41:17.339Z,2.10
2022-09-12T07:43:44.096Z,2.15
2022-09-12T07:46:10.786Z,2.00
2022-09-12T07:48:38.287Z,2.00
2022-09-12T07:51:08.151Z,1.92
2022-09-12T07:53:37.019Z,1.70
2022-09-12T07:56:05.502Z,1.92
2022-09-12T07:58:33.182Z,1.63
2022-09-12T08:01:03.136Z,1.60
2022-09-12T08:03:29.725Z,1.67
2022-09-12T08:06:03.373Z,1.50
2022-09-12T08:08:29.858Z,1.60
2022-09-12T08:11:00.769Z,1.50
2022-09-12T08:13:29.181Z,1.50
2022-09-12T08:16:04.932Z,1.60
2022-09-12T08:18:32.754Z,1.60
2022-09-12T08:21:00.727Z,1.50
2022-09-12T08:23:28.703Z,1.80
2022-09-12T08:25:56.897Z,1.60
2022-09-12T08:28:25.257Z,1.67
2022-09-12T08:30:56.166Z,1.60
2022-09-12T08:33:22.695Z,1.75
2022-09-12T08:35:49.141Z,1.80
2022-09-12T08:38:15.643Z,1.90
2022-09-12T08:41:08.266Z,1.98
2022-09-12T08:43:56.080Z,2.50
2022-09-12T08:46:32.059Z,2.20
2022-09-12T08:49:01.255Z,2.33
2022-09-12T08:51:29.362Z,2.40
2022-09-12T08:53:57.363Z,2.10
2022-09-12T08:56:31.474Z,2.60
2022-09-12T08:58:58.788Z,2.47
2022-09-12T09:01:35.751Z,2.33
2022-09-12T09:04:18.351Z,2.92
2022-09-12T09:06:59.939Z,2.80
2022-09-12T09:09:59.184Z,2.78
2022-09-12T09:12:34.856Z,3.00
2022-09-12T09:15:14.798Z,2.70
2022-09-12T09:18:01.825Z,2.53
2022-09-12T09:20:45.420Z,2.78
2022-09-12T09:23:28.508Z,2.60
2022-09-12T09:25:59.513Z,2.35
2022-09-12T09:28:47.549Z,2.22
2022-09-12T09:31:19.799Z,2.17
2022-09-12T09:33:52.103Z,2.37
2022-09-12T09:36:27.419Z,2.20
2022-09-12T09:39:16.251Z,2.22
2022-09-12T09:41:56.489Z,2.50
2022-09-12T09:44:23.487Z,2.53
2022-09-12T09:46:54.288Z,2.47
2022-09-12T09:49:21.794Z,2.40
2022-09-12T09:51:48.564Z,2.70
2022-09-12T09:54:25.462Z,2.20
2022-09-12T09:56:52.447Z,2.00
2022-09-12T09:59:26.612Z,2.40
2022-09-12T10:01:55.699Z,2.40
2022-09-12T10:04:24.671Z,2.08
2022-09-12T10:06:53.034Z,2.50
2022-09-12T10:09:19.495Z,2.10
2022-09-12T10:11:48.018Z,2.17
2022-09-12T10:14:36.783Z,2.17
2022-09-12T10:17:25.837Z,2.25
2022-09-12T10:20:10.498Z,1.90
2022-09-12T10:22:39.995Z,2.00
2022-09-12T10:25:13.236Z,2.10
2022-09-12T10:27:42.105Z,2.13
2022-09-12T10:30:14.807Z,2.10
2022-09-12T10:32:45.900Z,2.65
2022-09-12T10:35:20.537Z,2.45
2022-09-12T10:37:57.216Z,2.05
2022-09-12T10:40:27.465Z,2.20
2022-09-12T10:42:59.275Z,2.38
2022-09-12T10:45:29.451Z,2.28
2022-09-12T10:47:59.213Z,2.33
2022-09-12T10:50:28.718Z,2.40
2022-09-12T10:53:12.904Z,2.15
2022-09-12T10:55:42.819Z,1.90
2022-09-12T10:58:21.655Z,2.08
2022-09-12T11:00:55.171Z,2.00
2022-09-12T11:03:33.002Z,1.90
2022-09-12T11:06:01.476Z,2.08
2022-09-12T11:08:50.709Z,1.75
2022-09-12T11:11:26.241Z,2.10
2022-09-12T11:14:06.208Z,1.98
2022-09-12T11:16:49.151Z,2.00
2022-09-12T11:19:33.641Z,2.00
2022-09-12T11:22:16.524Z,2.10
2022-09-12T11:24:43.007Z,2.08
2022-09-12T11:27:33.528Z,2.38
2022-09-12T11:30:09.256Z,2.40
2022-09-12T11:33:00.091Z,2.03
2022-09-12T11:35:32.741Z,2.40
2022-09-12T11:38:20.179Z,2.08
2022-09-12T11:40:55.702Z,2.40
2022-09-12T11:43:35.702Z,2.05
2022-09-12T11:46:29.514Z,2.10
2022-09-12T11:49:13.618Z,2.20
2022-09-12T11:51:49.881Z,2.45
2022-09-12T11:54:31.265Z,2.10
2022-09-12T11:57:20.623Z,2.20
2022-09-12T12:00:02.179Z,2.20
2022-09-12T12:02:40.191Z,2.45
2022-09-12T12:05:16.263Z,2.40
2022-09-12T12:07:52.432Z,2.30
2022-09-12T12:10:40.136Z,2.22
2022-09-12T12:13:15.386Z,2.20
2022-09-12T12:15:48.553Z,2.40
2022-09-12T12:18:23.961Z,2.20
2022-09-12T12:20:51.355Z,2.20
2022-09-12T12:23:32.433Z,2.40
2022-09-12T12:26:04.479Z,2.22
2022-09-12T12:28:44.249Z,2.20
2022-09-12T12:31:11.349Z,2.30
2022-09-12T12:33:37.813Z,2.53
2022-09-12T12:36:08.271Z,3.10
2022-09-12T12:38:36.929Z,2.45
2022-09-12T12:41:18.718Z,2.40
2022-09-12T12:43:46.141Z,2.40
2022-09-12T12:46:14.683Z,2.25
2022-09-12T12:49:07.177Z,2.20
2022-09-12T12:51:36.529Z,2.05
2022-09-12T12:54:45.745Z,2.10
2022-09-12T12:57:32.008Z,2.30
2022-09-12T13:00:03.802Z,2.10
2022-09-12T13:02:41.089Z,2.45
2022-09-12T13:05:19.846Z,2.50
2022-09-12T13:07:48.236Z,2.25
2022-09-12T13:10:28.805Z,2.05
2022-09-12T13:12:59.679Z,1.90
2022-09-12T13:15:30.024Z,1.90
2022-09-12T13:18:02.025Z,1.80
2022-09-12T13:20:31.674Z,1.90
2022-09-12T13:22:58.626Z,1.80
2022-09-12T13:25:36.844Z,2.00
2022-09-12T13:28:12.430Z,2.15
2022-09-12T13:30:58.490Z,2.00
2022-09-12T13:33:30.972Z,2.10
2022-09-12T13:36:34.430Z,2.00
2022-09-12T13:39:25.521Z,2.17
2022-09-12T13:42:36.416Z,2.15
2022-09-12T13:45:12.851Z,1.77
2022-09-12T13:47:45.529Z,1.95
2022-09-12T13:50:27.998Z,1.98
2022-09-12T13:53:01.730Z,1.90
2022-09-12T13:55:32.469Z,2.05
2022-09-12T13:58:02.122Z,1.92
2022-09-12T14:00:32.133Z,1.90
2022-09-12T14:03:20.400Z,1.98
2022-09-12T14:05:55.687Z,2.00
2022-09-12T14:08:23.800Z,2.08
2022-09-12T14:10:51.067Z,1.80
2022-09-12T14:13:20.867Z,1.75
2022-09-12T14:15:50.006Z,1.95
2022-09-12T14:18:29.657Z,2.10
2022-09-12T14:21:00.917Z,1.85
2022-09-12T14:23:30.735Z,2.00
2022-09-12T14:26:00.202Z,2.20
2022-09-12T14:28:31.107Z,2.20
2022-09-12T14:31:05.173Z,2.25
2022-09-12T14:33:49.761Z,2.03
2022-09-12T14:36:27.319Z,2.20
2022-09-12T14:38:57.526Z,2.20
2022-09-12T14:41:28.349Z,2.10
2022-09-12T14:43:58.854Z,2.10
2022-09-12T14:46:35.987Z,2.20
2022-09-12T14:49:16.802Z,2.40
2022-09-12T14:51:52.288Z,2.42
2022-09-12T14:54:27.738Z,2.30
2022-09-12T14:56:56.764Z,2.13
2022-09-12T14:59:28.635Z,2.00
2022-09-12T15:02:13.714Z,2.05
2022-09-12T15:04:46.247Z,1.80
2022-09-12T15:07:26.521Z,2.05
2022-09-12T15:09:53.236Z,1.98
2022-09-12T15:12:19.990Z,1.83
2022-09-12T15:14:46.535Z,1.90
2022-09-12T15:17:12.989Z,2.05
2022-09-12T15:19:39.423Z,1.90
2022-09-12T15:22:06.022Z,1.80
2022-09-12T15:24:32.543Z,1.80
2022-09-12T15:26:59.037Z,1.80
2022-09-12T15:29:25.498Z,2.08
2022-09-12T15:31:52.000Z,1.90
2022-09-12T15:34:19.987Z,2.00
2022-09-12T15:36:46.504Z,2.30
2022-09-12T15:39:13.310Z,1.90
2022-09-12T15:41:39.816Z,1.90
2022-09-12T15:44:11.234Z,1.70
2022-09-12T15:46:37.849Z,1.85
2022-09-12T15:49:04.495Z,1.90
2022-09-12T15:51:31.023Z,1.90
2022-09-12T15:53:57.483Z,1.90
2022-09-12T15:56:24.018Z,2.33
2022-09-12T15:58:58.910Z,1.83
2022-09-12T16:01:27.018Z,1.83
2022-09-12T16:03:53.581Z,1.90
2022-09-12T16:06:20.147Z,1.90
2022-09-12T16:08:46.763Z,1.80
2022-09-12T16:11:21.069Z,1.90
2022-09-12T16:13:47.796Z,2.33
2022-09-12T16:16:14.409Z,2.13
2022-09-12T16:18:41.661Z,1.80
2022-09-12T16:21:12.763Z,2.83
2022-09-12T16:23:46.001Z,2.10
2022-09-12T16:26:13.160Z,2.00
2022-09-12T16:28:39.787Z,1.83
2022-09-12T16:31:08.816Z,1.80
2022-09-12T16:33:37.704Z,1.80
2022-09-12T16:36:05.619Z,1.98
2022-09-12T16:38:33.770Z,1.90
2022-09-12T16:41:04.660Z,1.95
2022-09-12T16:43:31.945Z,2.20
2022-09-12T16:46:07.391Z,2.08
2022-09-12T16:48:34.661Z,2.10
2022-09-12T16:51:03.499Z,2.08
2022-09-12T16:53:31.257Z,2.10
2022-09-12T16:55:57.905Z,2.17
2022-09-12T16:58:24.566Z,2.25
2022-09-12T17:01:00.570Z,2.20
2022-09-12T17:03:27.506Z,2.08
2022-09-12T17:05:59.621Z,2.17
2022-09-12T17:08:26.380Z,2.10
2022-09-12T17:10:53.066Z,2.20
2022-09-12T17:13:19.528Z,2.38
2022-09-12T17:15:46.012Z,2.13
2022-09-12T17:18:12.519Z,2.10
2022-09-12T17:20:39.067Z,2.10
2022-09-12T17:23:09.685Z,2.30
2022-09-12T17:25:36.445Z,2.38
2022-09-12T17:28:05.570Z,2.50
2022-09-12T17:30:35.619Z,2.60
2022-09-12T17:33:02.288Z,2.40
2022-09-12T17:35:29.068Z,2.75
2022-09-12T17:37:55.503Z,2.42
2022-09-12T17:40:32.749Z,3.10
2022-09-12T17:43:08.454Z,2.83
2022-09-12T17:45:34.906Z,2.78
2022-09-12T17:48:02.051Z,2.70
2022-09-12T17:50:31.768Z,2.80
2022-09-12T17:52:59.300Z,2.70
2022-09-12T17:55:25.958Z,2.88
2022-09-12T17:57:52.626Z,2.92
2022-09-12T18:00:39.082Z,2.83
2022-09-12T18:03:05.995Z,3.08
2022-09-12T18:05:32.438Z,3.22
2022-09-12T18:07:58.879Z,2.90
2022-09-12T18:10:26.131Z,3.10
2022-09-12T18:12:52.758Z,3.28
2022-09-12T18:15:19.231Z,3.20
2022-09-12T18:17:45.760Z,3.40
2022-09-12T18:20:12.216Z,3.50
2022-09-12T18:22:38.750Z,3.50
2022-09-12T18:25:05.653Z,4.38
2022-09-12T18:27:32.131Z,3.70
2022-09-12T18:30:17.545Z,3.90
2022-09-12T18:32:45.606Z,3.83
2022-09-12T18:35:12.096Z,3.42
2022-09-12T18:37:41.179Z,3.17
2022-09-12T18:40:08.015Z,3.45
2022-09-12T18:42:34.541Z,3.70
2022-09-12T18:45:00.997Z,3.78
2022-09-12T18:47:27.599Z,3.80
2022-09-12T18:49:54.074Z,3.80
2022-09-12T18:52:20.784Z,4.05
2022-09-12T18:54:47.245Z,4.22
2022-09-12T18:57:13.713Z,4.10
2022-09-12T18:59:40.191Z,4.07
2022-09-12T19:02:07.157Z,4.30
2022-09-12T19:04:33.959Z,4.65
2022-09-12T19:07:01.546Z,4.32
2022-09-12T19:09:29.087Z,4.10
2022-09-12T19:11:55.909Z,4.22
2022-09-12T19:14:23.807Z,5.00
2022-09-12T19:16:50.859Z,4.43
2022-09-12T19:19:18.065Z,4.75
2022-09-12T19:21:44.862Z,4.72
2022-09-12T19:24:11.781Z,4.90
2022-09-12T19:26:39.195Z,5.13
2022-09-12T19:29:07.019Z,5.03
2022-09-12T19:31:33.737Z,4.85
2022-09-12T19:34:01.848Z,4.68
2022-09-12T19:36:44.471Z,5.10
2022-09-12T19:39:12.856Z,4.97
2022-09-12T19:41:39.550Z,4.88
2022-09-12T19:44:06.063Z,4.65
2022-09-12T19:46:32.651Z,5.20
2022-09-12T19:48:59.219Z,5.10
2022-09-12T19:51:26.387Z,5.18
2022-09-12T19:53:53.386Z,5.50
2022-09-12T19:56:20.011Z,5.20
2022-09-12T19:58:50.870Z,6.05
2022-09-12T20:01:29.476Z,5.95
2022-09-12T20:03:57.650Z,5.90
2022-09-12T20:06:24.651Z,5.30
2022-09-12T20:08:51.162Z,5.57
2022-09-12T20:11:19.731Z,5.93
2022-09-12T20:13:47.230Z,5.28
2022-09-12T20:16:20.549Z,5.32
2022-09-12T20:18:49.375Z,5.03
2022-09-12T20:21:21.841Z,5.43
2022-09-12T20:23:48.444Z,5.75
2022-09-12T20:26:15.079Z,5.50
2022-09-12T20:28:42.293Z,5.10
2022-09-12T20:31:13.287Z,5.13
2022-09-12T20:33:40.069Z,5.22
2022-09-12T20:36:09.787Z,5.10
2022-09-12T20:38:36.485Z,5.88
2022-09-12T20:41:04.551Z,5.78
2022-09-12T20:43:31.095Z,4.95
2022-09-12T20:45:57.934Z,5.20
2022-09-12T20:48:24.965Z,5.13
2022-09-12T20:50:51.456Z,5.32
2022-09-12T20:53:17.951Z,5.70
2022-09-12T20:55:52.067Z,5.65
2022-09-12T20:58:19.494Z,5.97
2022-09-12T21:00:46.818Z,5.50
2022-09-12T21:03:14.431Z,5.97
2022-09-12T21:05:43.368Z,5.50
2022-09-12T21:08:10.828Z,5.55
2022-09-12T21:10:37.448Z,5.82
2022-09-12T21:13:03.973Z,5.63
2022-09-12T21:15:30.429Z,5.57
2022-09-12T21:17:57.057Z,5.85
2022-09-12T21:20:23.701Z,6.03
2022-09-12T21:22:50.169Z,5.88
2022-09-12T21:25:16.647Z,5.53
2022-09-12T21:27:43.138Z,5.50
2022-09-12T21:30:10.055Z,5.93
2022-09-12T21:32:36.672Z,5.85
2022-09-12T21:35:05.226Z,6.85
2022-09-12T21:37:32.376Z,6.72
2022-09-12T21:39:59.411Z,6.63
2022-09-12T21:42:26.221Z,6.60
2022-09-12T21:44:52.765Z,6.30
2022-09-12T21:47:19.338Z,6.28
2022-09-12T21:49:45.830Z,6.80
2022-09-12T21:52:15.396Z,6.00
2022-09-12T21:54:41.846Z,5.88
2022-09-12T21:57:08.383Z,6.00
2022-09-12T21:59:34.907Z,6.82
2022-09-12T22:02:01.443Z,6.63
2022-09-12T22:04:27.995Z,7.68
2022-09-12T22:06:54.471Z,7.05
2022-09-12T22:09:21.082Z,6.47
2022-09-12T22:11:47.567Z,6.43
2022-09-12T22:14:14.029Z,6.22
2022-09-12T22:16:40.539Z,6.13
2022-09-12T22:19:07.091Z,5.55
2022-09-12T22:21:33.624Z,5.57
2022-09-12T22:24:18.696Z,5.32
2022-09-12T22:26:46.326Z,5.20
2022-09-12T22:29:13.380Z,5.40
2022-09-12T22:31:40.088Z,5.72
2022-09-12T22:34:07.303Z,5.68
2022-09-12T22:36:38.163Z,5.75
2022-09-12T22:39:06.042Z,5.10
2022-09-12T22:41:32.539Z,5.72
2022-09-12T22:43:59.137Z,5.70
2022-09-12T22:46:25.742Z,5.72
2022-09-12T22:48:52.316Z,6.03
2022-09-12T22:51:19.027Z,6.00
2022-09-12T22:53:45.499Z,6.20
2022-09-12T22:56:11.991Z,5.60
2022-09-12T22:58:38.621Z,6.65
2022-09-12T23:01:06.449Z,7.15
2022-09-12T23:03:33.792Z,7.28
2022-09-12T23:06:00.349Z,8.07
2022-09-12T23:08:29.515Z,7.78
2022-09-12T23:11:04.539Z,7.28
2022-09-12T23:13:32.202Z,6.57
2022-09-12T23:16:00.239Z,7.00
2022-09-12T23:18:27.086Z,7.18
2022-09-12T23:21:08.694Z,6.80
2022-09-12T23:23:35.462Z,6.07
2022-09-12T23:26:02.807Z,6.40
2022-09-12T23:28:29.457Z,6.95
2022-09-12T23:30:56.837Z,6.15
2022-09-12T23:33:23.666Z,6.10
2022-09-12T23:35:50.149Z,6.72
2022-09-12T23:38:16.629Z,6.63
2022-09-12T23:40:43.098Z,6.25
2022-09-12T23:43:09.573Z,6.47
2022-09-12T23:45:36.060Z,6.50
2022-09-12T23:48:04.337Z,6.60
2022-09-12T23:50:30.825Z,7.22
2022-09-12T23:52:57.307Z,6.93
2022-09-12T23:55:24.501Z,6.80
2022-09-12T23:57:50.967Z,6.88
